Dietrich, Idaho
Current Conditions -  °F | °C
As of 1:53 PM on Saturday 25 Oct 2014 (Local Time) from KJER Reporting Station
Clear Clear  
Wind Chill: 74°   Ceiling: Unl
Heat Index: 74°   Visibility: 10mi
Dew Point: 32°   Wind: 13mph
Humidity: 21%   Direction: 150°SSE
Pressure: 29.88"   Gusts: NA
Location:  42.91°N, 114.27°W
Report Text: KJER 251953Z AUTO 15011KT 10SM CLR 23/00 A2988 RMK AO2 SLP092 T02330000
Loading
Personal Weather Stations






























Interactive Weather Map
Tropical Storm Tracking
New forecast layout! Learn more

10-Day Weather Forecast

Advertisements
Track Severe Weather on mobile